El Paso (ELP/KELP)

Map

Information

Location
El Paso, TX
Local Time
21:32 / 9:32 pm
GMT Time
03:32 / 3:32 am
Gates
B10
No FAA reported delays
METAR KELP 250251Z 01026G36KT 3SM BLDU FEW090 SCT140 BKN200 28/13 A3013 RMK AO2 PK WND 01036/0247 PRESRR SLP125 MTNS OBSCD SW-NW T02780128 53036 $
TAF KELP 250307Z 2503/2524 08013G23KT P6SM VCTS SCT080CB SCT150 BKN250 TEMPO 2503/2505 VRB27G37KT 3SM TSRA BLDU FM250500 06010KT P6SM VCTS SCT080CB OVC150 FM250900 10009KT P6SM -SHRA VCTS BKN050CB BKN200 FM251800 14010G17KT P6SM VCTS SCT050CB SCT110 BKN200